Time,TemperatureF,DewpointF,PressureIn,WindDirection,WindDirectionDegrees,WindSpeedMPH,WindSpeedGustMPH,Humidity,HourlyPrecipIn,Conditions,Clouds,dailyrainin,SoftwareType,DateUTC
2013-09-07 00:00:00,75.3,69.4,29.82,South,172,5.0,5.0,82,0.00,,,0.00,Wunderground v.1.15,2013-09-07 05:00:00,
2013-09-07 00:10:00,74.9,69.0,29.82,SSE,165,4.0,4.0,82,0.00,,,0.00,Wunderground v.1.15,2013-09-07 05:10:00,
2013-09-07 00:20:00,74.6,69.1,29.83,SSE,167,5.0,5.0,83,0.00,,,0.00,Wunderground v.1.15,2013-09-07 05:20:00,
2013-09-07 00:30:00,74.5,69.0,29.83,SSE,162,4.0,4.0,83,0.00,,,0.00,Wunderground v.1.15,2013-09-07 05:30:00,
2013-09-07 00:40:00,74.8,68.9,29.83,SE,142,5.0,6.0,82,0.00,,,0.00,Wunderground v.1.15,2013-09-07 05:40:00,
2013-09-07 00:45:00,75.0,68.8,29.83,SSE,165,5.0,6.0,81,0.00,,,0.00,Wunderground v.1.15,2013-09-07 05:45:00,
2013-09-07 00:50:00,75.1,68.9,29.83,SSE,166,5.0,5.0,81,0.00,,,0.00,Wunderground v.1.15,2013-09-07 05:50:00,
2013-09-07 01:00:00,75.1,68.9,29.83,South,169,5.0,5.0,81,0.00,,,0.00,Wunderground v.1.15,2013-09-07 06:00:00,
2013-09-07 01:10:00,74.7,68.5,29.83,SE,142,5.0,5.0,81,0.00,,,0.00,Wunderground v.1.15,2013-09-07 06:10:00,
2013-09-07 01:15:00,74.5,68.3,29.83,SE,145,4.0,5.0,81,0.00,,,0.00,Wunderground v.1.15,2013-09-07 06:15:00,
2013-09-07 01:20:00,74.2,68.3,29.83,SSE,163,4.0,5.0,82,0.00,,,0.00,Wunderground v.1.15,2013-09-07 06:20:00,
2013-09-07 01:30:00,73.6,68.1,29.83,SSE,148,3.0,3.0,83,0.00,,,0.00,Wunderground v.1.15,2013-09-07 06:30:00,
2013-09-07 01:40:00,73.4,67.9,29.83,SSE,148,3.0,3.0,83,0.00,,,0.00,Wunderground v.1.15,2013-09-07 06:40:00,
2013-09-07 01:45:00,73.2,68.1,29.83,SE,138,3.0,3.0,84,0.00,,,0.00,Wunderground v.1.15,2013-09-07 06:45:00,
2013-09-07 01:55:00,72.6,67.8,29.83,SSE,162,3.0,3.0,85,0.00,,,0.00,Wunderground v.1.15,2013-09-07 06:55:00,
2013-09-07 02:00:00,72.4,67.6,29.83,SE,136,3.0,3.0,85,0.00,,,0.00,Wunderground v.1.15,2013-09-07 07:00:00,
2013-09-07 02:10:00,72.0,67.6,29.83,SSE,152,3.0,4.0,86,0.00,,,0.00,Wunderground v.1.15,2013-09-07 07:10:00,
2013-09-07 02:15:00,71.9,67.5,29.83,SSE,158,3.0,4.0,86,0.00,,,0.00,Wunderground v.1.15,2013-09-07 07:15:00,
2013-09-07 02:25:00,71.8,67.4,29.83,SSE,156,3.0,3.0,86,0.00,,,0.00,Wunderground v.1.15,2013-09-07 07:25:00,
2013-09-07 02:35:00,71.5,67.4,29.83,SE,125,3.0,3.0,87,0.00,,,0.00,Wunderground v.1.15,2013-09-07 07:35:00,
2013-09-07 02:45:00,71.2,67.1,29.83,SE,132,3.0,3.0,87,0.00,,,0.00,Wunderground v.1.15,2013-09-07 07:45:00,
2013-09-07 02:50:00,71.1,67.0,29.83,SSE,148,3.0,4.0,87,0.00,,,0.00,Wunderground v.1.15,2013-09-07 07:50:00,
2013-09-07 03:01:00,71.0,67.3,29.83,SSE,152,3.0,3.0,88,0.00,,,0.00,Wunderground v.1.15,2013-09-07 08:01:00,
2013-09-07 03:10:00,70.9,67.2,29.83,SE,139,3.0,3.0,88,0.00,,,0.00,Wunderground v.1.15,2013-09-07 08:10:00,
2013-09-07 03:15:00,70.8,67.1,29.83,SE,139,3.0,3.0,88,0.00,,,0.00,Wunderground v.1.15,2013-09-07 08:15:00,
2013-09-07 03:25:00,70.6,66.9,29.82,SSE,152,3.0,3.0,88,0.00,,,0.00,Wunderground v.1.15,2013-09-07 08:25:00,
2013-09-07 03:30:00,70.4,66.7,29.82,SSE,156,3.0,3.0,88,0.00,,,0.00,Wunderground v.1.15,2013-09-07 08:30:00,
2013-09-07 03:40:00,70.1,66.7,29.82,SE,141,2.0,2.0,89,0.00,,,0.00,Wunderground v.1.15,2013-09-07 08:40:00,
2013-09-07 03:45:00,69.9,66.5,29.82,SE,136,2.0,3.0,89,0.00,,,0.00,Wunderground v.1.15,2013-09-07 08:45:00,
2013-09-07 03:50:00,69.8,66.4,29.82,SE,146,2.0,2.0,89,0.00,,,0.00,Wunderground v.1.15,2013-09-07 08:50:00,
2013-09-07 04:00:00,69.5,66.4,29.82,SE,146,1.0,2.0,90,0.00,,,0.00,Wunderground v.1.15,2013-09-07 09:00:00,
2013-09-07 04:10:00,69.2,66.1,29.82,SE,136,1.0,1.0,90,0.00,,,0.00,Wunderground v.1.15,2013-09-07 09:10:00,
2013-09-07 04:15:00,69.2,66.5,29.82,SE,135,1.0,1.0,91,0.00,,,0.00,Wunderground v.1.15,2013-09-07 09:15:00,
2013-09-07 04:25:00,69.3,66.2,29.82,SE,143,1.0,1.0,90,0.00,,,0.00,Wunderground v.1.15,2013-09-07 09:25:00,
2013-09-07 04:35:00,69.3,66.2,29.81,SSE,150,2.0,2.0,90,0.00,,,0.00,Wunderground v.1.15,2013-09-07 09:35:00,
2013-09-07 04:45:00,69.5,66.4,29.81,SSE,162,2.0,3.0,90,0.00,,,0.00,Wunderground v.1.15,2013-09-07 09:45:00,
2013-09-07 04:55:00,69.5,66.4,29.82,SSE,156,2.0,2.0,90,0.00,,,0.00,Wunderground v.1.15,2013-09-07 09:55:00,
2013-09-07 05:01:00,69.4,66.3,29.82,SE,139,1.0,1.0,90,0.00,,,0.00,Wunderground v.1.15,2013-09-07 10:01:00,
2013-09-07 05:10:00,69.3,66.2,29.81,SSE,151,1.0,2.0,90,0.00,,,0.00,Wunderground v.1.15,2013-09-07 10:10:00,
2013-09-07 05:15:00,69.1,66.0,29.81,SSE,155,1.0,2.0,90,0.00,,,0.00,Wunderground v.1.15,2013-09-07 10:15:00,
2013-09-07 05:25:00,68.4,65.4,29.81,SSE,155,0.0,0.0,90,0.00,,,0.00,Wunderground v.1.15,2013-09-07 10:25:00,
2013-09-07 05:35:00,68.0,65.3,29.82,SE,133,0.0,0.0,91,0.00,,,0.00,Wunderground v.1.15,2013-09-07 10:35:00,
2013-09-07 05:45:00,67.5,65.1,29.81,SSE,165,1.0,1.0,92,0.00,,,0.00,Wunderground v.1.15,2013-09-07 10:45:00,
2013-09-07 05:50:00,67.3,64.9,29.81,SSE,152,1.0,1.0,92,0.00,,,0.00,Wunderground v.1.15,2013-09-07 10:50:00,
2013-09-07 06:00:00,67.0,64.9,29.81,SSE,152,1.0,1.0,93,0.00,,,0.00,Wunderground v.1.15,2013-09-07 11:00:00,
2013-09-07 06:05:00,66.8,64.7,29.81,SSE,152,0.0,1.0,93,0.00,,,0.00,Wunderground v.1.15,2013-09-07 11:05:00,
2013-09-07 06:15:00,66.8,65.0,29.81,SE,138,1.0,1.0,94,0.00,,,0.00,Wunderground v.1.15,2013-09-07 11:15:00,
2013-09-07 06:25:00,67.0,65.2,29.81,SSE,168,1.0,1.0,94,0.00,,,0.00,Wunderground v.1.15,2013-09-07 11:25:00,
2013-09-07 06:35:00,67.1,65.3,29.80,South,173,2.0,3.0,94,0.00,,,0.00,Wunderground v.1.15,2013-09-07 11:35:00,
2013-09-07 06:45:00,67.6,65.8,29.80,SSE,156,2.0,2.0,94,0.00,,,0.00,Wunderground v.1.15,2013-09-07 11:45:00,
2013-09-07 06:55:00,67.8,65.7,29.80,South,181,3.0,3.0,93,0.00,,,0.00,Wunderground v.1.15,2013-09-07 11:55:00,
2013-09-07 07:00:00,67.9,65.8,29.80,South,173,3.0,3.0,93,0.00,,,0.00,Wunderground v.1.15,2013-09-07 12:00:00,
2013-09-07 07:10:00,68.2,66.1,29.80,SSE,164,3.0,4.0,93,0.00,,,0.00,Wunderground v.1.15,2013-09-07 12:10:00,
2013-09-07 07:20:00,68.7,66.3,29.80,South,188,3.0,3.0,92,0.00,,,0.00,Wunderground v.1.15,2013-09-07 12:20:00,
2013-09-07 07:30:00,69.4,67.0,29.79,South,172,3.0,4.0,92,0.00,,,0.00,Wunderground v.1.15,2013-09-07 12:30:00,
2013-09-07 07:40:00,70.5,67.7,29.79,SW,231,4.0,4.0,91,0.00,,,0.00,Wunderground v.1.15,2013-09-07 12:40:00,
2013-09-07 07:50:00,72.2,68.1,29.79,SW,217,4.0,5.0,87,0.00,,,0.00,Wunderground v.1.15,2013-09-07 12:50:00,
2013-09-07 07:55:00,72.8,68.0,29.80,SSW,200,4.0,5.0,85,0.00,,,0.00,Wunderground v.1.15,2013-09-07 12:55:00,
2013-09-07 08:00:00,73.3,68.2,29.80,West,278,2.0,2.0,84,0.00,,,0.00,Wunderground v.1.15,2013-09-07 13:00:00,
2013-09-07 08:10:00,74.1,68.3,29.80,SW,233,2.0,6.0,82,0.00,,,0.00,Wunderground v.1.15,2013-09-07 13:10:00,
2013-09-07 08:20:00,74.9,68.7,29.80,WSW,245,4.0,4.0,81,0.00,,,0.00,Wunderground v.1.15,2013-09-07 13:20:00,
2013-09-07 08:30:00,75.5,68.9,29.81,WSW,251,3.0,6.0,80,0.00,,,0.00,Wunderground v.1.15,2013-09-07 13:30:00,
2013-09-07 08:40:00,75.9,68.9,29.80,West,262,4.0,4.0,79,0.00,,,0.00,Wunderground v.1.15,2013-09-07 13:40:00,
2013-09-07 08:50:00,75.8,68.8,29.80,SW,229,4.0,4.0,79,0.00,,,0.00,Wunderground v.1.15,2013-09-07 13:50:00,
2013-09-07 09:00:00,76.3,69.3,29.80,SW,233,4.0,4.0,79,0.00,,,0.00,Wunderground v.1.15,2013-09-07 14:00:00,
2013-09-07 09:10:00,76.7,68.9,29.81,WSW,238,5.0,5.0,77,0.00,,,0.00,Wunderground v.1.15,2013-09-07 14:10:00,
2013-09-07 09:20:00,77.2,69.8,29.80,SSW,203,6.0,6.0,78,0.00,,,0.00,Wunderground v.1.15,2013-09-07 14:20:00,
2013-09-07 09:30:00,77.8,69.6,29.80,WSW,238,5.0,6.0,76,0.00,,,0.00,Wunderground v.1.15,2013-09-07 14:30:00,
2013-09-07 09:40:00,78.5,69.1,29.81,SW,233,6.0,8.0,73,0.00,,,0.00,Wunderground v.1.15,2013-09-07 14:40:00,
2013-09-07 09:50:00,78.5,69.5,29.81,WSW,245,7.0,7.0,74,0.00,,,0.00,Wunderground v.1.15,2013-09-07 14:50:00,
2013-09-07 10:00:00,79.0,69.2,29.81,WSW,252,5.0,6.0,72,0.00,,,0.00,Wunderground v.1.15,2013-09-07 15:00:00,
2013-09-07 10:10:00,79.9,69.7,29.80,SW,227,6.0,6.0,71,0.00,,,0.00,Wunderground v.1.15,2013-09-07 15:10:00,
2013-09-07 10:20:00,81.0,69.9,29.80,SW,229,4.0,4.0,69,0.00,,,0.00,Wunderground v.1.15,2013-09-07 15:20:00,
2013-09-07 10:30:00,81.8,69.3,29.80,WSW,247,6.0,6.0,66,0.00,,,0.00,Wunderground v.1.15,2013-09-07 15:30:00,
2013-09-07 10:40:00,82.7,69.7,29.80,SSW,208,6.0,6.0,65,0.00,,,0.00,Wunderground v.1.15,2013-09-07 15:40:00,
2013-09-07 10:45:00,83.3,70.8,29.80,West,271,5.0,6.0,66,0.00,,,0.00,Wunderground v.1.15,2013-09-07 15:45:00,
2013-09-07 10:55:00,82.9,69.9,29.81,SW,229,4.0,4.0,65,0.00,,,0.00,Wunderground v.1.15,2013-09-07 15:55:00,
2013-09-07 11:00:00,83.7,70.2,29.81,SSW,205,3.0,7.0,64,0.00,,,0.00,Wunderground v.1.15,2013-09-07 16:00:00,
2013-09-07 11:10:00,84.7,70.2,29.81,West,262,5.0,5.0,62,0.00,,,0.00,Wunderground v.1.15,2013-09-07 16:10:00,
2013-09-07 11:20:00,85.2,69.7,29.81,West,264,5.0,5.0,60,0.00,,,0.00,Wunderground v.1.15,2013-09-07 16:20:00,
2013-09-07 11:30:00,85.8,70.3,29.82,SW,222,5.0,5.0,60,0.00,,,0.00,Wunderground v.1.15,2013-09-07 16:30:00,
2013-09-07 11:40:00,86.1,69.6,29.82,WNW,289,5.0,5.0,58,0.00,,,0.00,Wunderground v.1.15,2013-09-07 16:40:00,
2013-09-07 11:50:00,86.6,70.1,29.81,WNW,285,5.0,5.0,58,0.00,,,0.00,Wunderground v.1.15,2013-09-07 16:50:00,
2013-09-07 12:00:00,86.3,69.8,29.81,West,269,4.0,4.0,58,0.00,,,0.00,Wunderground v.1.15,2013-09-07 17:00:00,
2013-09-07 12:10:00,86.1,69.6,29.81,West,259,3.0,3.0,58,0.00,,,0.00,Wunderground v.1.15,2013-09-07 17:10:00,
2013-09-07 12:20:00,86.6,71.1,29.82,West,273,4.0,4.0,60,0.00,,,0.00,Wunderground v.1.15,2013-09-07 17:20:00,
2013-09-07 12:30:00,86.8,70.2,29.82,NW,314,5.0,5.0,58,0.00,,,0.00,Wunderground v.1.15,2013-09-07 17:30:00,
2013-09-07 12:40:00,87.2,70.6,29.82,WNW,287,4.0,6.0,58,0.00,,,0.00,Wunderground v.1.15,2013-09-07 17:40:00,
2013-09-07 12:50:00,87.3,71.2,29.83,NNW,343,4.0,4.0,59,0.00,,,0.00,Wunderground v.1.15,2013-09-07 17:50:00,
2013-09-07 13:01:00,87.3,70.7,29.84,NW,316,5.0,6.0,58,0.00,,,0.00,Wunderground v.1.15,2013-09-07 18:01:00,
2013-09-07 13:10:00,84.6,70.1,29.85,NNW,347,7.0,7.0,62,0.00,,,0.00,Wunderground v.1.15,2013-09-07 18:10:00,
2013-09-07 13:15:00,83.2,70.2,29.85,NNW,347,7.0,7.0,65,0.00,,,0.00,Wunderground v.1.15,2013-09-07 18:15:00,
2013-09-07 13:25:00,80.6,70.7,29.83,NNW,343,3.0,4.0,72,0.00,,,0.00,Wunderground v.1.15,2013-09-07 18:25:00,
2013-09-07 13:35:00,79.3,71.1,29.83,SE,127,1.0,2.0,76,0.00,,,0.01,Wunderground v.1.15,2013-09-07 18:35:00,
2013-09-07 13:45:00,77.4,71.8,29.83,WSW,249,3.0,5.0,83,0.00,,,0.01,Wunderground v.1.15,2013-09-07 18:45:00,
2013-09-07 13:55:00,76.6,70.7,29.79,East,93,5.0,5.0,82,0.00,,,0.01,Wunderground v.1.15,2013-09-07 18:55:00,
2013-09-07 14:00:00,77.3,70.6,29.77,ESE,115,6.0,9.0,80,0.00,,,0.01,Wunderground v.1.15,2013-09-07 19:00:00,
2013-09-07 14:10:00,78.0,71.3,29.76,ENE,67,9.0,15.0,80,0.00,,,0.01,Wunderground v.1.15,2013-09-07 19:10:00,
2013-09-07 14:20:00,77.6,71.3,29.76,ENE,73,9.0,9.0,81,0.00,,,0.01,Wunderground v.1.15,2013-09-07 19:20:00,
2013-09-07 14:25:00,77.3,71.7,29.78,WSW,250,6.0,9.0,83,0.00,,,0.01,Wunderground v.1.15,2013-09-07 19:25:00,
2013-09-07 14:35:00,77.9,70.5,29.80,West,269,8.0,10.0,78,0.00,,,0.01,Wunderground v.1.15,2013-09-07 19:35:00,
2013-09-07 14:45:00,76.4,70.5,29.80,WNW,303,6.0,7.0,82,0.00,,,0.01,Wunderground v.1.15,2013-09-07 19:45:00,
2013-09-07 14:55:00,75.4,70.6,29.81,NW,326,5.0,5.0,85,0.00,,,0.01,Wunderground v.1.15,2013-09-07 19:55:00,
2013-09-07 15:00:00,75.2,70.7,29.81,WNW,296,4.0,4.0,86,0.00,,,0.01,Wunderground v.1.15,2013-09-07 20:00:00,
2013-09-07 15:10:00,75.5,70.7,29.81,NNW,343,5.0,5.0,85,0.00,,,0.01,Wunderground v.1.15,2013-09-07 20:10:00,
2013-09-07 15:20:00,76.3,70.8,29.80,NE,34,5.0,5.0,83,0.00,,,0.01,Wunderground v.1.15,2013-09-07 20:20:00,
2013-09-07 15:30:00,77.0,71.1,29.80,NNW,344,4.0,4.0,82,0.00,,,0.01,Wunderground v.1.15,2013-09-07 20:30:00,
2013-09-07 15:40:00,77.6,71.3,29.81,NNE,30,4.0,4.0,81,0.00,,,0.01,Wunderground v.1.15,2013-09-07 20:40:00,
2013-09-07 15:50:00,78.3,71.6,29.81,NNW,327,4.0,5.0,80,0.00,,,0.01,Wunderground v.1.15,2013-09-07 20:50:00,
2013-09-07 15:55:00,78.6,71.5,29.82,NNE,25,5.0,9.0,79,0.00,,,0.01,Wunderground v.1.15,2013-09-07 20:55:00,
2013-09-07 16:00:00,78.8,71.7,29.82,NNW,340,5.0,6.0,79,0.00,,,0.01,Wunderground v.1.15,2013-09-07 21:00:00,
2013-09-07 16:10:00,79.3,72.6,29.81,NNE,21,5.0,5.0,80,0.00,,,0.01,Wunderground v.1.15,2013-09-07 21:10:00,
2013-09-07 16:20:00,79.4,72.7,29.81,North,349,4.0,4.0,80,0.00,,,0.01,Wunderground v.1.15,2013-09-07 21:20:00,
2013-09-07 16:30:00,80.0,72.9,29.81,NNW,335,5.0,5.0,79,0.00,,,0.01,Wunderground v.1.15,2013-09-07 21:30:00,
2013-09-07 16:40:00,80.4,72.9,29.81,NNW,337,6.0,6.0,78,0.00,,,0.01,Wunderground v.1.15,2013-09-07 21:40:00,
2013-09-07 16:45:00,80.9,73.4,29.81,North,3,5.0,8.0,78,0.00,,,0.01,Wunderground v.1.15,2013-09-07 21:45:00,
2013-09-07 16:55:00,81.1,73.2,29.81,NNW,339,5.0,6.0,77,0.00,,,0.01,Wunderground v.1.15,2013-09-07 21:55:00,
2013-09-07 17:00:00,81.4,73.5,29.80,North,360,4.0,4.0,77,0.00,,,0.01,Wunderground v.1.15,2013-09-07 22:00:00,
2013-09-07 17:10:00,82.2,73.5,29.81,NE,43,5.0,5.0,75,0.00,,,0.01,Wunderground v.1.15,2013-09-07 22:10:00,
2013-09-07 17:20:00,82.4,72.5,29.80,NNE,20,5.0,6.0,72,0.00,,,0.01,Wunderground v.1.15,2013-09-07 22:20:00,
2013-09-07 17:30:00,83.1,72.7,29.80,NNE,26,6.0,6.0,71,0.00,,,0.01,Wunderground v.1.15,2013-09-07 22:30:00,
2013-09-07 17:40:00,83.1,73.1,29.80,North,8,6.0,6.0,72,0.00,,,0.01,Wunderground v.1.15,2013-09-07 22:40:00,
2013-09-07 17:50:00,83.2,73.6,29.80,North,355,4.0,4.0,73,0.00,,,0.01,Wunderground v.1.15,2013-09-07 22:50:00,
2013-09-07 18:00:00,83.8,74.2,29.80,NNE,23,4.0,5.0,73,0.00,,,0.01,Wunderground v.1.15,2013-09-07 23:00:00,
2013-09-07 18:10:00,84.2,73.3,29.80,ENE,61,7.0,10.0,70,0.00,,,0.01,Wunderground v.1.15,2013-09-07 23:10:00,
2013-09-07 18:15:00,84.4,73.1,29.80,NNE,27,7.0,10.0,69,0.00,,,0.01,Wunderground v.1.15,2013-09-07 23:15:00,
2013-09-07 18:25:00,84.5,73.2,29.81,NNE,21,8.0,8.0,69,0.00,,,0.01,Wunderground v.1.15,2013-09-07 23:25:00,
2013-09-07 18:35:00,84.4,73.5,29.80,NE,40,7.0,7.0,70,0.00,,,0.01,Wunderground v.1.15,2013-09-07 23:35:00,
2013-09-07 18:45:00,84.2,73.8,29.81,NE,43,7.0,7.0,71,0.00,,,0.01,Wunderground v.1.15,2013-09-07 23:45:00,
2013-09-07 18:50:00,83.7,73.7,29.81,NE,45,7.0,7.0,72,0.00,,,0.01,Wunderground v.1.15,2013-09-07 23:50:00,
2013-09-07 19:01:00,82.9,74.2,29.81,North,9,6.0,6.0,75,0.00,,,0.01,Wunderground v.1.15,2013-09-08 00:01:00,
2013-09-07 19:10:00,82.5,74.6,29.81,North,1,5.0,5.0,77,0.00,,,0.01,Wunderground v.1.15,2013-09-08 00:10:00,
2013-09-07 19:15:00,82.3,74.7,29.81,NNE,20,5.0,10.0,78,0.00,,,0.01,Wunderground v.1.15,2013-09-08 00:15:00,
2013-09-07 19:25:00,81.3,74.5,29.81,NE,41,6.0,6.0,80,0.00,,,0.01,Wunderground v.1.15,2013-09-08 00:25:00,
2013-09-07 19:35:00,80.5,74.1,29.81,NNE,21,4.0,5.0,81,0.00,,,0.01,Wunderground v.1.15,2013-09-08 00:35:00,
2013-09-07 19:45:00,79.7,73.7,29.81,NE,52,4.0,6.0,82,0.00,,,0.01,Wunderground v.1.15,2013-09-08 00:45:00,
2013-09-07 19:55:00,79.3,73.7,29.82,NNE,27,4.0,6.0,83,0.00,,,0.01,Wunderground v.1.15,2013-09-08 00:55:00,
2013-09-07 20:00:00,79.0,73.7,29.82,NNE,30,4.0,4.0,84,0.00,,,0.01,Wunderground v.1.15,2013-09-08 01:00:00,
2013-09-07 20:10:00,78.5,73.6,29.82,NNE,20,4.0,4.0,85,0.00,,,0.01,Wunderground v.1.15,2013-09-08 01:10:00,
2013-09-07 20:15:00,78.2,73.7,29.82,NNE,21,4.0,4.0,86,0.00,,,0.01,Wunderground v.1.15,2013-09-08 01:15:00,
2013-09-07 20:25:00,77.7,73.5,29.82,NE,37,3.0,4.0,87,0.00,,,0.01,Wunderground v.1.15,2013-09-08 01:25:00,
2013-09-07 20:35:00,77.2,73.0,29.82,NE,44,1.0,2.0,87,0.00,,,0.01,Wunderground v.1.15,2013-09-08 01:35:00,
2013-09-07 20:45:00,76.9,72.7,29.82,North,356,2.0,4.0,87,0.00,,,0.01,Wunderground v.1.15,2013-09-08 01:45:00,
2013-09-07 20:55:00,76.6,72.8,29.83,North,359,2.0,4.0,88,0.00,,,0.01,Wunderground v.1.15,2013-09-08 01:55:00,
2013-09-07 21:00:00,76.5,72.7,29.83,NE,39,3.0,4.0,88,0.00,,,0.01,Wunderground v.1.15,2013-09-08 02:00:00,
2013-09-07 21:05:00,76.3,72.5,29.83,NNE,13,4.0,4.0,88,0.00,,,0.01,Wunderground v.1.15,2013-09-08 02:05:00,
2013-09-07 21:15:00,75.9,72.4,29.83,NNE,18,4.0,4.0,89,0.00,,,0.01,Wunderground v.1.15,2013-09-08 02:15:00,
2013-09-07 21:25:00,75.5,72.0,29.83,NNE,30,3.0,4.0,89,0.00,,,0.01,Wunderground v.1.15,2013-09-08 02:25:00,
2013-09-07 21:35:00,75.2,72.1,29.83,North,351,3.0,3.0,90,0.00,,,0.01,Wunderground v.1.15,2013-09-08 02:35:00,
2013-09-07 21:45:00,75.1,72.0,29.83,NNE,30,3.0,3.0,90,0.00,,,0.01,Wunderground v.1.15,2013-09-08 02:45:00,
2013-09-07 21:55:00,74.9,71.8,29.83,NNE,27,2.0,3.0,90,0.00,,,0.01,Wunderground v.1.15,2013-09-08 02:55:00,
2013-09-07 22:00:00,74.8,71.7,29.83,NE,46,3.0,4.0,90,0.00,,,0.01,Wunderground v.1.15,2013-09-08 03:00:00,
2013-09-07 22:10:00,74.6,71.5,29.83,North,358,3.0,3.0,90,0.00,,,0.01,Wunderground v.1.15,2013-09-08 03:10:00,
2013-09-07 22:20:00,74.4,71.6,29.83,NNE,26,3.0,4.0,91,0.00,,,0.01,Wunderground v.1.15,2013-09-08 03:20:00,
2013-09-07 22:30:00,74.5,71.7,29.84,NNE,18,4.0,4.0,91,0.00,,,0.01,Wunderground v.1.15,2013-09-08 03:30:00,
2013-09-07 22:35:00,74.3,71.5,29.83,NNE,28,4.0,4.0,91,0.00,,,0.01,Wunderground v.1.15,2013-09-08 03:35:00,
2013-09-07 22:45:00,74.2,71.4,29.83,North,359,3.0,3.0,91,0.00,,,0.01,Wunderground v.1.15,2013-09-08 03:45:00,
2013-09-07 22:55:00,73.9,71.1,29.83,NNE,20,3.0,3.0,91,0.00,,,0.01,Wunderground v.1.15,2013-09-08 03:55:00,
2013-09-07 23:00:00,73.8,71.0,29.83,North,8,3.0,3.0,91,0.00,,,0.01,Wunderground v.1.15,2013-09-08 04:00:00,
2013-09-07 23:05:00,73.7,70.9,29.84,North,11,2.0,3.0,91,0.00,,,0.01,Wunderground v.1.15,2013-09-08 04:05:00,
2013-09-07 23:10:00,73.6,71.1,29.84,NNE,18,2.0,2.0,92,0.00,,,0.01,Wunderground v.1.15,2013-09-08 04:10:00,
2013-09-07 23:15:00,73.5,71.0,29.84,North,6,2.0,2.0,92,0.00,,,0.01,Wunderground v.1.15,2013-09-08 04:15:00,
2013-09-07 23:20:00,73.4,70.9,29.84,NNE,22,2.0,2.0,92,0.00,,,0.01,Wunderground v.1.15,2013-09-08 04:20:00,
2013-09-07 23:25:00,73.3,70.8,29.84,North,10,1.0,2.0,92,0.00,,,0.01,Wunderground v.1.15,2013-09-08 04:25:00,
2013-09-07 23:35:00,72.5,70.0,29.84,North,10,1.0,1.0,92,0.00,,,0.01,Wunderground v.1.15,2013-09-08 04:35:00,
2013-09-07 23:40:00,72.2,69.7,29.84,North,10,1.0,1.0,92,0.00,,,0.01,Wunderground v.1.15,2013-09-08 04:40:00,
2013-09-07 23:45:00,71.6,68.8,29.84,North,10,0.0,1.0,91,0.00,,,0.01,Wunderground v.1.15,2013-09-08 04:45:00,
2013-09-07 23:55:00,70.7,68.3,29.84,North,10,0.0,0.0,92,0.00,,,0.01,Wunderground v.1.15,2013-09-08 04:55:00,